Terminal Aerodrome Forecast
Issued by NWS

Home | Current Version | Previous Version | Text Only | Print | Product List | Glossary On
Versions: 1 2 3 4 5 6 7 8 9 10 11 12 13
000
FTUS42 KTBW 110538
TAFRSW
TAF
KRSW 110538Z 1106/1206 07008KT P6SM SCT040
     FM110900 05008KT P6SM SCT025 BKN040
     FM111500 10012KT P6SM BKN025 OVC040
     FM111800 11012KT P6SM SCT025 OVC050
     FM120200 09005KT P6SM BKN025=

USA.gov is the U.S. government's official web portal to all federal, state and local government web resources and services.